sensor_id;sensor_type;location;lat;lon;timestamp;pressure;altitude;pressure_sealevel;temperature;humidity
69622;BME280;56841;55.964;37.674;2023-03-14T00:01:58;99241.38;;;-3.19;72.86
69622;BME280;56841;55.964;37.674;2023-03-14T00:04:24;99237.91;;;-3.18;72.95
69622;BME280;56841;55.964;37.674;2023-03-14T00:06:50;99231.06;;;-3.19;73.02
69622;BME280;56841;55.964;37.674;2023-03-14T00:09:16;99225.47;;;-3.11;73.30
69622;BME280;56841;55.964;37.674;2023-03-14T00:11:43;99209.22;;;-2.99;72.77
69622;BME280;56841;55.964;37.674;2023-03-14T00:14:08;99210.69;;;-2.95;72.85
69622;BME280;56841;55.964;37.674;2023-03-14T00:16:34;99207.28;;;-2.95;72.43
69622;BME280;56841;55.964;37.674;2023-03-14T00:19:00;99196.03;;;-2.94;72.49
69622;BME280;56841;55.964;37.674;2023-03-14T00:21:27;99199.25;;;-2.91;72.16
69622;BME280;56841;55.964;37.674;2023-03-14T00:23:53;99189.13;;;-2.94;72.29
69622;BME280;56841;55.964;37.674;2023-03-14T00:26:20;99186.31;;;-2.91;72.64
69622;BME280;56841;55.964;37.674;2023-03-14T00:28:50;99180.34;;;-2.91;72.42
69622;BME280;56841;55.964;37.674;2023-03-14T00:31:16;99177.19;;;-2.82;72.51
69622;BME280;56841;55.964;37.674;2023-03-14T00:33:42;99181.84;;;-2.87;72.21
69622;BME280;56841;55.964;37.674;2023-03-14T00:36:11;99179.69;;;-2.80;72.31
69622;BME280;56841;55.964;37.674;2023-03-14T00:38:38;99167.81;;;-2.83;72.06
69622;BME280;56841;55.964;37.674;2023-03-14T00:41:16;99181.44;;;-2.81;71.98
69622;BME280;56841;55.964;37.674;2023-03-14T00:43:42;99174.44;;;-2.79;72.05
69622;BME280;56841;55.964;37.674;2023-03-14T00:46:09;99164.66;;;-2.88;71.87
69622;BME280;56841;55.964;37.674;2023-03-14T00:48:35;99171.38;;;-2.86;72.42
69622;BME280;56841;55.964;37.674;2023-03-14T00:51:02;99170.91;;;-2.78;73.15
69622;BME280;56841;55.964;37.674;2023-03-14T00:53:29;99157.47;;;-2.83;73.02
69622;BME280;56841;55.964;37.674;2023-03-14T00:55:54;99159.00;;;-2.80;72.95
69622;BME280;56841;55.964;37.674;2023-03-14T00:58:20;99152.81;;;-2.78;73.05
69622;BME280;56841;55.964;37.674;2023-03-14T01:00:46;99149.03;;;-2.72;72.91
69622;BME280;56841;55.964;37.674;2023-03-14T01:03:13;99150.13;;;-2.62;73.32
69622;BME280;56841;55.964;37.674;2023-03-14T01:05:40;99146.81;;;-2.64;72.83
69622;BME280;56841;55.964;37.674;2023-03-14T01:08:06;99146.28;;;-2.69;73.46
69622;BME280;56841;55.964;37.674;2023-03-14T01:10:34;99136.75;;;-2.69;73.38
69622;BME280;56841;55.964;37.674;2023-03-14T01:13:04;99129.00;;;-2.69;73.99
69622;BME280;56841;55.964;37.674;2023-03-14T01:15:32;99131.88;;;-2.73;74.65
69622;BME280;56841;55.964;37.674;2023-03-14T01:17:58;99132.56;;;-2.57;74.77
69622;BME280;56841;55.964;37.674;2023-03-14T01:20:23;99132.75;;;-2.46;74.63
69622;BME280;56841;55.964;37.674;2023-03-14T01:22:49;99127.25;;;-2.41;74.98
69622;BME280;56841;55.964;37.674;2023-03-14T01:25:16;99111.50;;;-2.51;75.11
69622;BME280;56841;55.964;37.674;2023-03-14T01:27:43;99103.16;;;-2.42;75.53
69622;BME280;56841;55.964;37.674;2023-03-14T01:30:11;99092.28;;;-2.47;76.31
69622;BME280;56841;55.964;37.674;2023-03-14T01:32:38;99080.53;;;-2.38;76.49
69622;BME280;56841;55.964;37.674;2023-03-14T01:35:04;99072.19;;;-2.29;77.37
69622;BME280;56841;55.964;37.674;2023-03-14T01:37:30;99073.59;;;-2.38;77.72
69622;BME280;56841;55.964;37.674;2023-03-14T01:39:56;99072.84;;;-2.40;78.77
69622;BME280;56841;55.964;37.674;2023-03-14T01:42:21;99068.09;;;-2.46;79.57
69622;BME280;56841;55.964;37.674;2023-03-14T01:44:54;99067.56;;;-2.51;80.56
69622;BME280;56841;55.964;37.674;2023-03-14T01:47:21;99060.03;;;-2.41;82.14
69622;BME280;56841;55.964;37.674;2023-03-14T01:49:52;99056.72;;;-2.43;82.12
69622;BME280;56841;55.964;37.674;2023-03-14T01:52:24;99056.94;;;-2.33;83.11
69622;BME280;56841;55.964;37.674;2023-03-14T01:55:14;99053.84;;;-2.39;83.52
69622;BME280;56841;55.964;37.674;2023-03-14T01:57:44;99066.22;;;-2.44;85.71
69622;BME280;56841;55.964;37.674;2023-03-14T02:00:16;99057.75;;;-2.46;86.18
69622;BME280;56841;55.964;37.674;2023-03-14T02:02:46;99052.59;;;-2.46;87.23
69622;BME280;56841;55.964;37.674;2023-03-14T02:05:23;99037.56;;;-2.53;88.81
69622;BME280;56841;55.964;37.674;2023-03-14T02:07:58;99023.59;;;-2.51;89.58
69622;BME280;56841;55.964;37.674;2023-03-14T02:10:32;99026.31;;;-2.40;90.68
69622;BME280;56841;55.964;37.674;2023-03-14T02:13:04;99026.56;;;-2.30;90.48
69622;BME280;56841;55.964;37.674;2023-03-14T02:15:56;99013.13;;;-2.22;90.81
69622;BME280;56841;55.964;37.674;2023-03-14T02:18:42;99002.06;;;-2.11;90.04
69622;BME280;56841;55.964;37.674;2023-03-14T02:25:08;98980.25;;;-1.95;91.24
69622;BME280;56841;55.964;37.674;2023-03-14T02:27:37;98976.09;;;-1.97;90.70
69622;BME280;56841;55.964;37.674;2023-03-14T02:30:10;98975.97;;;-1.96;90.92
69622;BME280;56841;55.964;37.674;2023-03-14T02:32:40;98968.22;;;-1.96;91.16
69622;BME280;56841;55.964;37.674;2023-03-14T02:35:11;98968.63;;;-2.02;91.39
69622;BME280;56841;55.964;37.674;2023-03-14T02:37:50;98960.56;;;-2.10;93.08
69622;BME280;56841;55.964;37.674;2023-03-14T02:40:19;98959.63;;;-1.96;94.10
69622;BME280;56841;55.964;37.674;2023-03-14T02:42:46;98959.31;;;-1.92;93.58
69622;BME280;56841;55.964;37.674;2023-03-14T02:47:56;98965.13;;;-1.88;94.92
69622;BME280;56841;55.964;37.674;2023-03-14T02:50:26;98960.44;;;-1.83;94.91
69622;BME280;56841;55.964;37.674;2023-03-14T02:52:55;98948.34;;;-1.82;94.94
69622;BME280;56841;55.964;37.674;2023-03-14T02:55:21;98947.50;;;-1.83;95.77
69622;BME280;56841;55.964;37.674;2023-03-14T02:57:47;98943.34;;;-1.73;96.74
69622;BME280;56841;55.964;37.674;2023-03-14T03:00:13;98936.09;;;-1.68;96.47
69622;BME280;56841;55.964;37.674;2023-03-14T03:02:40;98943.16;;;-1.82;96.55
69622;BME280;56841;55.964;37.674;2023-03-14T03:05:06;98952.06;;;-1.86;98.03
69622;BME280;56841;55.964;37.674;2023-03-14T03:07:32;98950.84;;;-1.94;99.41
69622;BME280;56841;55.964;37.674;2023-03-14T03:09:58;98949.59;;;-1.88;100.00
69622;BME280;56841;55.964;37.674;2023-03-14T03:12:24;98940.69;;;-1.84;100.00
69622;BME280;56841;55.964;37.674;2023-03-14T03:14:49;98929.00;;;-1.89;100.00
69622;BME280;56841;55.964;37.674;2023-03-14T03:17:15;98927.44;;;-1.92;100.00
69622;BME280;56841;55.964;37.674;2023-03-14T03:19:41;98923.69;;;-1.75;100.00
69622;BME280;56841;55.964;37.674;2023-03-14T03:22:07;98926.28;;;-1.75;100.00
69622;BME280;56841;55.964;37.674;2023-03-14T03:24:33;98916.94;;;-1.65;100.00
69622;BME280;56841;55.964;37.674;2023-03-14T03:27:01;98925.13;;;-1.71;100.00
69622;BME280;56841;55.964;37.674;2023-03-14T03:29:27;98908.25;;;-1.64;100.00
69622;BME280;56841;55.964;37.674;2023-03-14T03:31:53;98899.97;;;-1.69;100.00
69622;BME280;56841;55.964;37.674;2023-03-14T03:34:18;98880.69;;;-1.65;100.00
69622;BME280;56841;55.964;37.674;2023-03-14T03:36:48;98869.44;;;-1.77;100.00
69622;BME280;56841;55.964;37.674;2023-03-14T03:39:14;98873.59;;;-1.74;100.00
69622;BME280;56841;55.964;37.674;2023-03-14T03:41:39;98859.50;;;-1.70;100.00
69622;BME280;56841;55.964;37.674;2023-03-14T03:44:05;98853.38;;;-1.69;100.00
69622;BME280;56841;55.964;37.674;2023-03-14T03:46:32;98840.94;;;-1.64;100.00
69622;BME280;56841;55.964;37.674;2023-03-14T03:49:00;98827.50;;;-1.69;100.00
69622;BME280;56841;55.964;37.674;2023-03-14T03:51:27;98818.19;;;-1.72;100.00
69622;BME280;56841;55.964;37.674;2023-03-14T03:53:53;98821.28;;;-1.67;100.00
69622;BME280;56841;55.964;37.674;2023-03-14T03:56:26;98828.00;;;-1.64;100.00
69622;BME280;56841;55.964;37.674;2023-03-14T03:58:52;98829.91;;;-1.55;100.00
69622;BME280;56841;55.964;37.674;2023-03-14T04:01:17;98813.50;;;-1.42;100.00
69622;BME280;56841;55.964;37.674;2023-03-14T04:03:47;98817.25;;;-1.47;100.00
69622;BME280;56841;55.964;37.674;2023-03-14T04:06:12;98820.94;;;-1.38;100.00
69622;BME280;56841;55.964;37.674;2023-03-14T04:08:40;98814.25;;;-1.29;100.00
69622;BME280;56841;55.964;37.674;2023-03-14T04:11:08;98824.72;;;-1.31;100.00
69622;BME280;56841;55.964;37.674;2023-03-14T04:13:53;98816.63;;;-1.26;100.00
69622;BME280;56841;55.964;37.674;2023-03-14T04:16:23;98813.19;;;-1.27;100.00
69622;BME280;56841;55.964;37.674;2023-03-14T04:18:52;98798.22;;;-1.34;100.00
69622;BME280;56841;55.964;37.674;2023-03-14T04:21:21;98791.34;;;-1.23;100.00
69622;BME280;56841;55.964;37.674;2023-03-14T04:23:51;98799.00;;;-1.10;100.00
69622;BME280;56841;55.964;37.674;2023-03-14T04:26:18;98785.44;;;-1.13;100.00
69622;BME280;56841;55.964;37.674;2023-03-14T04:28:43;98764.03;;;-1.15;100.00
69622;BME280;56841;55.964;37.674;2023-03-14T04:31:13;98791.13;;;-1.08;100.00
69622;BME280;56841;55.964;37.674;2023-03-14T04:33:39;98777.00;;;-0.93;100.00
69622;BME280;56841;55.964;37.674;2023-03-14T04:36:07;98770.41;;;-0.97;100.00
69622;BME280;56841;55.964;37.674;2023-03-14T04:38:34;98767.94;;;-0.99;100.00
69622;BME280;56841;55.964;37.674;2023-03-14T04:41:01;98763.13;;;-0.92;100.00
69622;BME280;56841;55.964;37.674;2023-03-14T04:43:30;98770.09;;;-0.81;100.00
69622;BME280;56841;55.964;37.674;2023-03-14T04:46:05;98754.78;;;-0.73;100.00
69622;BME280;56841;55.964;37.674;2023-03-14T04:48:32;98748.06;;;-0.64;100.00
69622;BME280;56841;55.964;37.674;2023-03-14T04:50:58;98737.56;;;-0.63;100.00
69622;BME280;56841;55.964;37.674;2023-03-14T04:53:26;98736.88;;;-0.54;100.00
69622;BME280;56841;55.964;37.674;2023-03-14T04:55:55;98723.91;;;-0.54;100.00
69622;BME280;56841;55.964;37.674;2023-03-14T04:58:23;98732.38;;;-0.40;100.00
69622;BME280;56841;55.964;37.674;2023-03-14T05:00:50;98723.28;;;-0.35;100.00
69622;BME280;56841;55.964;37.674;2023-03-14T05:03:35;98736.38;;;-0.36;100.00
69622;BME280;56841;55.964;37.674;2023-03-14T05:06:10;98733.75;;;-0.25;100.00
69622;BME280;56841;55.964;37.674;2023-03-14T05:09:08;98730.44;;;-0.16;100.00
69622;BME280;56841;55.964;37.674;2023-03-14T05:11:54;98724.31;;;-0.15;100.00
69622;BME280;56841;55.964;37.674;2023-03-14T05:14:49;98707.88;;;-0.04;100.00
69622;BME280;56841;55.964;37.674;2023-03-14T05:17:38;98702.69;;;-0.04;100.00
69622;BME280;56841;55.964;37.674;2023-03-14T05:20:26;98715.38;;;0.10;100.00
69622;BME280;56841;55.964;37.674;2023-03-14T05:23:16;98698.50;;;0.16;100.00
69622;BME280;56841;55.964;37.674;2023-03-14T05:25:51;98710.69;;;0.04;100.00
69622;BME280;56841;55.964;37.674;2023-03-14T05:28:34;98715.84;;;0.15;100.00
69622;BME280;56841;55.964;37.674;2023-03-14T05:31:28;98710.84;;;0.23;100.00
69622;BME280;56841;55.964;37.674;2023-03-14T05:34:07;98732.19;;;0.27;100.00
69622;BME280;56841;55.964;37.674;2023-03-14T05:36:39;98736.25;;;0.41;100.00
69622;BME280;56841;55.964;37.674;2023-03-14T05:39:31;98752.88;;;0.50;100.00
69622;BME280;56841;55.964;37.674;2023-03-14T05:42:20;98735.34;;;0.63;100.00
69622;BME280;56841;55.964;37.674;2023-03-14T05:45:15;98744.09;;;0.62;100.00
69622;BME280;56841;55.964;37.674;2023-03-14T05:47:59;98752.47;;;0.65;100.00
69622;BME280;56841;55.964;37.674;2023-03-14T05:50:42;98745.81;;;0.73;100.00
69622;BME280;56841;55.964;37.674;2023-03-14T05:53:11;98742.81;;;0.77;100.00
69622;BME280;56841;55.964;37.674;2023-03-14T05:55:43;98729.91;;;0.87;100.00
69622;BME280;56841;55.964;37.674;2023-03-14T05:58:46;98733.19;;;0.89;100.00
69622;BME280;56841;55.964;37.674;2023-03-14T06:01:32;98726.53;;;0.96;100.00
69622;BME280;56841;55.964;37.674;2023-03-14T06:04:08;98735.91;;;1.08;99.16
69622;BME280;56841;55.964;37.674;2023-03-14T06:06:37;98747.81;;;1.11;98.91
69622;BME280;56841;55.964;37.674;2023-03-14T06:09:05;98747.06;;;1.20;97.22
69622;BME280;56841;55.964;37.674;2023-03-14T06:11:33;98737.69;;;1.38;95.58
69622;BME280;56841;55.964;37.674;2023-03-14T06:13:59;98726.88;;;1.43;94.85
69622;BME280;56841;55.964;37.674;2023-03-14T06:16:25;98718.00;;;1.46;93.96
69622;BME280;56841;55.964;37.674;2023-03-14T06:18:52;98723.09;;;1.57;92.62
69622;BME280;56841;55.964;37.674;2023-03-14T06:21:19;98714.34;;;1.58;91.82
69622;BME280;56841;55.964;37.674;2023-03-14T06:23:46;98713.25;;;1.60;91.09
69622;BME280;56841;55.964;37.674;2023-03-14T06:26:12;98709.72;;;1.71;90.78
69622;BME280;56841;55.964;37.674;2023-03-14T06:28:38;98701.81;;;1.82;90.23
69622;BME280;56841;55.964;37.674;2023-03-14T06:31:05;98700.44;;;1.78;89.52
69622;BME280;56841;55.964;37.674;2023-03-14T06:33:38;98716.44;;;1.83;89.22
69622;BME280;56841;55.964;37.674;2023-03-14T06:36:06;98716.03;;;1.78;88.76
69622;BME280;56841;55.964;37.674;2023-03-14T06:38:33;98704.13;;;1.85;88.36
69622;BME280;56841;55.964;37.674;2023-03-14T06:41:06;98698.22;;;1.83;87.61
69622;BME280;56841;55.964;37.674;2023-03-14T06:43:37;98704.97;;;1.86;87.68
69622;BME280;56841;55.964;37.674;2023-03-14T06:46:05;98685.91;;;1.85;86.97
69622;BME280;56841;55.964;37.674;2023-03-14T06:48:32;98698.41;;;1.92;87.29
69622;BME280;56841;55.964;37.674;2023-03-14T06:50:58;98688.38;;;1.97;87.03
69622;BME280;56841;55.964;37.674;2023-03-14T06:53:24;98676.47;;;1.94;86.79
69622;BME280;56841;55.964;37.674;2023-03-14T06:55:51;98685.09;;;1.95;87.35
69622;BME280;56841;55.964;37.674;2023-03-14T06:58:18;98699.88;;;1.94;87.83
69622;BME280;56841;55.964;37.674;2023-03-14T07:00:45;98653.84;;;2.04;88.11
69622;BME280;56841;55.964;37.674;2023-03-14T07:03:15;98683.03;;;1.98;88.19
69622;BME280;56841;55.964;37.674;2023-03-14T07:05:44;98686.63;;;2.07;89.13
69622;BME280;56841;55.964;37.674;2023-03-14T07:08:10;98683.19;;;2.06;89.55
69622;BME280;56841;55.964;37.674;2023-03-14T07:10:36;98682.63;;;2.22;90.02
69622;BME280;56841;55.964;37.674;2023-03-14T07:13:02;98680.31;;;2.19;89.59
69622;BME280;56841;55.964;37.674;2023-03-14T07:15:32;98682.78;;;2.11;89.40
69622;BME280;56841;55.964;37.674;2023-03-14T07:18:03;98679.63;;;2.27;89.33
69622;BME280;56841;55.964;37.674;2023-03-14T07:20:30;98689.22;;;2.26;89.20
69622;BME280;56841;55.964;37.674;2023-03-14T07:22:58;98694.28;;;2.18;88.45
69622;BME280;56841;55.964;37.674;2023-03-14T07:25:54;98697.59;;;2.40;87.61
69622;BME280;56841;55.964;37.674;2023-03-14T07:28:23;98670.03;;;2.47;86.76
69622;BME280;56841;55.964;37.674;2023-03-14T07:30:55;98685.94;;;2.53;85.88
69622;BME280;56841;55.964;37.674;2023-03-14T07:33:26;98685.94;;;2.53;85.43
69622;BME280;56841;55.964;37.674;2023-03-14T07:35:52;98696.06;;;2.56;85.32
69622;BME280;56841;55.964;37.674;2023-03-14T07:38:18;98678.09;;;2.53;84.71
69622;BME280;56841;55.964;37.674;2023-03-14T07:41:04;98692.22;;;2.51;83.71
69622;BME280;56841;55.964;37.674;2023-03-14T07:43:33;98701.69;;;2.52;83.18
69622;BME280;56841;55.964;37.674;2023-03-14T07:46:00;98704.97;;;2.54;82.82
69622;BME280;56841;55.964;37.674;2023-03-14T07:48:26;98697.84;;;2.56;82.37
69622;BME280;56841;55.964;37.674;2023-03-14T07:50:53;98698.25;;;2.61;82.93
69622;BME280;56841;55.964;37.674;2023-03-14T07:53:20;98694.94;;;2.59;82.39
69622;BME280;56841;55.964;37.674;2023-03-14T07:55:46;98687.69;;;2.63;82.66
69622;BME280;56841;55.964;37.674;2023-03-14T07:58:13;98697.53;;;2.69;81.81
69622;BME280;56841;55.964;37.674;2023-03-14T08:00:39;98713.47;;;2.66;82.00
69622;BME280;56841;55.964;37.674;2023-03-14T08:03:05;98696.84;;;2.76;81.63
69622;BME280;56841;55.964;37.674;2023-03-14T08:05:34;98701.78;;;2.79;80.35
69622;BME280;56841;55.964;37.674;2023-03-14T08:08:00;98693.13;;;2.89;80.22
69622;BME280;56841;55.964;37.674;2023-03-14T08:10:26;98702.56;;;2.90;80.17
69622;BME280;56841;55.964;37.674;2023-03-14T08:12:55;98691.88;;;2.83;79.82
69622;BME280;56841;55.964;37.674;2023-03-14T08:15:22;98691.50;;;2.78;80.08
69622;BME280;56841;55.964;37.674;2023-03-14T08:17:48;98700.53;;;2.83;79.46
69622;BME280;56841;55.964;37.674;2023-03-14T08:20:19;98713.69;;;2.92;79.55
69622;BME280;56841;55.964;37.674;2023-03-14T08:22:45;98710.84;;;2.85;79.33
69622;BME280;56841;55.964;37.674;2023-03-14T08:25:11;98710.41;;;2.90;79.37
69622;BME280;56841;55.964;37.674;2023-03-14T08:27:37;98725.31;;;3.07;79.30
69622;BME280;56841;55.964;37.674;2023-03-14T08:30:05;98689.97;;;2.95;78.65
69622;BME280;56841;55.964;37.674;2023-03-14T08:32:32;98730.00;;;3.03;78.42
69622;BME280;56841;55.964;37.674;2023-03-14T08:34:58;98715.47;;;3.01;78.57
69622;BME280;56841;55.964;37.674;2023-03-14T08:37:23;98713.22;;;3.16;78.71
69622;BME280;56841;55.964;37.674;2023-03-14T08:39:53;98713.25;;;3.06;78.77
69622;BME280;56841;55.964;37.674;2023-03-14T08:42:19;98708.13;;;3.14;79.04
69622;BME280;56841;55.964;37.674;2023-03-14T08:44:45;98701.97;;;3.15;79.64
69622;BME280;56841;55.964;37.674;2023-03-14T08:47:11;98711.44;;;3.16;79.80
69622;BME280;56841;55.964;37.674;2023-03-14T08:49:37;98682.63;;;3.08;80.27
69622;BME280;56841;55.964;37.674;2023-03-14T08:52:03;98716.19;;;3.30;81.31
69622;BME280;56841;55.964;37.674;2023-03-14T08:54:30;98698.63;;;3.23;80.52
69622;BME280;56841;55.964;37.674;2023-03-14T08:56:57;98689.31;;;3.20;80.13
69622;BME280;56841;55.964;37.674;2023-03-14T08:59:23;98695.50;;;3.19;80.24
69622;BME280;56841;55.964;37.674;2023-03-14T09:01:49;98695.31;;;3.30;80.11
69622;BME280;56841;55.964;37.674;2023-03-14T09:04:15;98678.78;;;3.40;80.05
69622;BME280;56841;55.964;37.674;2023-03-14T09:06:41;98682.84;;;3.52;79.54
69622;BME280;56841;55.964;37.674;2023-03-14T09:09:07;98691.19;;;3.55;79.01
69622;BME280;56841;55.964;37.674;2023-03-14T09:11:32;98691.34;;;3.54;78.15
69622;BME280;56841;55.964;37.674;2023-03-14T09:13:58;98688.00;;;3.62;77.37
69622;BME280;56841;55.964;37.674;2023-03-14T09:16:24;98687.13;;;3.71;77.26
69622;BME280;56841;55.964;37.674;2023-03-14T09:18:50;98695.56;;;3.83;75.93
69622;BME280;56841;55.964;37.674;2023-03-14T09:21:18;98691.03;;;3.85;75.12
69622;BME280;56841;55.964;37.674;2023-03-14T09:23:44;98709.88;;;4.06;74.68
69622;BME280;56841;55.964;37.674;2023-03-14T09:26:11;98704.50;;;4.08;73.97
69622;BME280;56841;55.964;37.674;2023-03-14T09:28:37;98700.91;;;4.09;72.93
69622;BME280;56841;55.964;37.674;2023-03-14T09:31:07;98701.97;;;4.16;72.74
69622;BME280;56841;55.964;37.674;2023-03-14T09:33:34;98704.72;;;4.14;71.30
69622;BME280;56841;55.964;37.674;2023-03-14T09:36:01;98703.22;;;4.12;71.02
69622;BME280;56841;55.964;37.674;2023-03-14T09:38:27;98703.00;;;4.23;70.78
69622;BME280;56841;55.964;37.674;2023-03-14T09:40:54;98714.97;;;4.25;70.51
69622;BME280;56841;55.964;37.674;2023-03-14T09:43:24;98704.56;;;4.34;70.31
69622;BME280;56841;55.964;37.674;2023-03-14T09:45:52;98709.50;;;4.37;70.14
69622;BME280;56841;55.964;37.674;2023-03-14T09:48:26;98710.47;;;4.36;69.66
69622;BME280;56841;55.964;37.674;2023-03-14T09:50:55;98710.78;;;4.33;68.95
69622;BME280;56841;55.964;37.674;2023-03-14T09:53:27;98696.44;;;4.37;69.14
69622;BME280;56841;55.964;37.674;2023-03-14T09:55:57;98702.19;;;4.40;69.35
69622;BME280;56841;55.964;37.674;2023-03-14T09:58:24;98670.59;;;4.34;68.97
69622;BME280;56841;55.964;37.674;2023-03-14T10:00:52;98672.09;;;4.36;68.92
69622;BME280;56841;55.964;37.674;2023-03-14T10:03:34;98676.50;;;4.36;69.23
69622;BME280;56841;55.964;37.674;2023-03-14T10:06:00;98683.06;;;4.40;69.22
69622;BME280;56841;55.964;37.674;2023-03-14T10:08:27;98684.03;;;4.39;69.53
69622;BME280;56841;55.964;37.674;2023-03-14T10:10:53;98695.47;;;4.38;69.35
69622;BME280;56841;55.964;37.674;2023-03-14T10:13:22;98673.06;;;4.35;70.02
69622;BME280;56841;55.964;37.674;2023-03-14T10:15:54;98685.75;;;4.30;70.69
69622;BME280;56841;55.964;37.674;2023-03-14T10:18:22;98685.63;;;4.32;70.86
69622;BME280;56841;55.964;37.674;2023-03-14T10:21:15;98684.13;;;4.29;71.71
69622;BME280;56841;55.964;37.674;2023-03-14T10:23:43;98683.59;;;4.25;72.02
69622;BME280;56841;55.964;37.674;2023-03-14T10:26:13;98682.25;;;4.21;71.76
69622;BME280;56841;55.964;37.674;2023-03-14T10:28:48;98684.25;;;4.10;73.42
69622;BME280;56841;55.964;37.674;2023-03-14T10:31:16;98698.88;;;3.85;75.61
69622;BME280;56841;55.964;37.674;2023-03-14T10:33:57;98687.50;;;3.76;76.21
69622;BME280;56841;55.964;37.674;2023-03-14T10:36:27;98696.19;;;3.76;76.69
69622;BME280;56841;55.964;37.674;2023-03-14T10:38:58;98672.94;;;3.83;77.82
69622;BME280;56841;55.964;37.674;2023-03-14T10:41:31;98674.31;;;3.77;77.84
69622;BME280;56841;55.964;37.674;2023-03-14T10:43:59;98658.44;;;3.71;78.79
69622;BME280;56841;55.964;37.674;2023-03-14T10:46:30;98688.00;;;3.62;79.63
69622;BME280;56841;55.964;37.674;2023-03-14T10:49:26;98679.75;;;3.66;79.67
69622;BME280;56841;55.964;37.674;2023-03-14T10:51:53;98655.00;;;3.70;79.34
69622;BME280;56841;55.964;37.674;2023-03-14T10:54:23;98647.09;;;3.80;78.47
69622;BME280;56841;55.964;37.674;2023-03-14T10:56:59;98664.34;;;3.91;77.84
69622;BME280;56841;55.964;37.674;2023-03-14T10:59:30;98660.91;;;4.08;77.47
69622;BME280;56841;55.964;37.674;2023-03-14T11:10:03;98635.72;;;4.43;71.80
69622;BME280;56841;55.964;37.674;2023-03-14T11:15:45;98655.00;;;4.68;70.56
69622;BME280;56841;55.964;37.674;2023-03-14T11:18:43;98651.25;;;4.70;69.78
69622;BME280;56841;55.964;37.674;2023-03-14T11:21:21;98642.53;;;4.88;69.48
69622;BME280;56841;55.964;37.674;2023-03-14T11:29:17;98648.75;;;5.13;68.19
69622;BME280;56841;55.964;37.674;2023-03-14T11:31:46;98631.22;;;5.13;67.92
69622;BME280;56841;55.964;37.674;2023-03-14T11:34:19;98648.91;;;5.19;67.73
69622;BME280;56841;55.964;37.674;2023-03-14T11:37:01;98658.63;;;5.35;67.25
69622;BME280;56841;55.964;37.674;2023-03-14T11:39:41;98653.50;;;5.26;66.77
69622;BME280;56841;55.964;37.674;2023-03-14T11:42:12;98656.69;;;5.37;66.84
69622;BME280;56841;55.964;37.674;2023-03-14T11:44:43;98662.22;;;5.34;66.52
69622;BME280;56841;55.964;37.674;2023-03-14T11:47:17;98654.06;;;5.37;65.97
69622;BME280;56841;55.964;37.674;2023-03-14T11:52:25;98649.84;;;5.44;66.05
69622;BME280;56841;55.964;37.674;2023-03-14T11:55:19;98651.44;;;5.37;66.20
69622;BME280;56841;55.964;37.674;2023-03-14T11:57:47;98670.88;;;5.27;66.53
69622;BME280;56841;55.964;37.674;2023-03-14T12:00:20;98646.66;;;5.25;66.27
69622;BME280;56841;55.964;37.674;2023-03-14T12:02:57;98658.94;;;5.32;66.04
69622;BME280;56841;55.964;37.674;2023-03-14T12:08:22;98677.63;;;5.37;65.05
69622;BME280;56841;55.964;37.674;2023-03-14T12:10:58;98667.66;;;5.41;65.51
69622;BME280;56841;55.964;37.674;2023-03-14T12:13:29;98672.22;;;5.39;65.30
69622;BME280;56841;55.964;37.674;2023-03-14T12:16:00;98674.22;;;5.45;64.64
69622;BME280;56841;55.964;37.674;2023-03-14T12:18:35;98662.63;;;5.47;64.29
69622;BME280;56841;55.964;37.674;2023-03-14T12:21:07;98662.31;;;5.59;63.87
69622;BME280;56841;55.964;37.674;2023-03-14T12:23:58;98673.63;;;5.67;64.00
69622;BME280;56841;55.964;37.674;2023-03-14T12:26:25;98669.53;;;5.65;64.79
69622;BME280;56841;55.964;37.674;2023-03-14T12:34:02;98668.09;;;5.28;66.61
69622;BME280;56841;55.964;37.674;2023-03-14T12:39:28;98675.44;;;5.25;65.96
69622;BME280;56841;55.964;37.674;2023-03-14T12:42:09;98689.56;;;5.40;64.71
69622;BME280;56841;55.964;37.674;2023-03-14T12:44:44;98674.22;;;5.45;65.61
69622;BME280;56841;55.964;37.674;2023-03-14T12:49:42;98676.34;;;5.41;65.99
69622;BME280;56841;55.964;37.674;2023-03-14T12:58:03;98665.66;;;5.35;66.83
69622;BME280;56841;55.964;37.674;2023-03-14T13:00:38;98693.97;;;5.31;66.41
69622;BME280;56841;55.964;37.674;2023-03-14T13:05:57;98686.94;;;5.40;66.64
69622;BME280;56841;55.964;37.674;2023-03-14T13:10:59;98663.06;;;5.43;67.13
69622;BME280;56841;55.964;37.674;2023-03-14T13:13:27;98679.25;;;5.38;67.28
69622;BME280;56841;55.964;37.674;2023-03-14T13:15:59;98672.59;;;5.44;67.81
69622;BME280;56841;55.964;37.674;2023-03-14T13:18:38;98652.06;;;5.31;67.32
69622;BME280;56841;55.964;37.674;2023-03-14T13:21:22;98661.44;;;5.42;67.24
69622;BME280;56841;55.964;37.674;2023-03-14T13:24:01;98674.53;;;5.42;66.96
69622;BME280;56841;55.964;37.674;2023-03-14T13:26:39;98678.78;;;5.43;66.55
69622;BME280;56841;55.964;37.674;2023-03-14T13:29:14;98678.63;;;5.44;66.02
69622;BME280;56841;55.964;37.674;2023-03-14T13:31:45;98675.41;;;5.51;65.87
69622;BME280;56841;55.964;37.674;2023-03-14T13:34:11;98655.44;;;5.58;65.53
69622;BME280;56841;55.964;37.674;2023-03-14T13:36:38;98663.44;;;5.48;65.07
69622;BME280;56841;55.964;37.674;2023-03-14T13:39:09;98659.69;;;5.51;64.70
69622;BME280;56841;55.964;37.674;2023-03-14T13:41:39;98669.47;;;5.49;64.03
69622;BME280;56841;55.964;37.674;2023-03-14T13:44:07;98662.16;;;5.60;63.90
69622;BME280;56841;55.964;37.674;2023-03-14T13:46:35;98670.00;;;5.60;63.80
69622;BME280;56841;55.964;37.674;2023-03-14T13:49:04;98656.91;;;5.60;63.09
69622;BME280;56841;55.964;37.674;2023-03-14T13:51:31;98663.81;;;5.61;62.52
69622;BME280;56841;55.964;37.674;2023-03-14T13:54:01;98654.78;;;5.64;62.03
69622;BME280;56841;55.964;37.674;2023-03-14T13:56:31;98655.78;;;5.63;61.26
69622;BME280;56841;55.964;37.674;2023-03-14T13:58:57;98666.44;;;5.69;61.26
69622;BME280;56841;55.964;37.674;2023-03-14T14:01:24;98676.91;;;5.69;60.98
69622;BME280;56841;55.964;37.674;2023-03-14T14:03:52;98661.06;;;5.71;60.38